Terminal Aerodrome Forecast
Issued by NWS

Home | Current Version | Previous Version | Graphics & Text | Print | Product List | Glossary Off
Versions: 1 2 3 4 5 6 7 8 9 10 11 12 13 14 15 16 17 18

000
FTUS43 KDDC 212320
TAFHYS
TAF
KHYS 212320Z 2200/2224 18021G30KT P6SM SKC
     FM220400 18016KT P6SM FEW250 WS020/19045KT
     FM221300 18015G23KT P6SM FEW200=

USA.gov is the U.S. government's official web portal to all federal, state and local government web resources and services.